Time;durP1;ratioP1;P1;durP2;ratioP2;P2;SDS_P1;SDS_P2;PMS_P1;PMS_P2;Temp;Humidity;BMP_temperature;BMP_pressure;BME280_temperature;BME280_humidity;BME280_pressure;Samples;Min_cycle;Max_cycle;Signal;HPM_P1;HPM_P2
2024/01/09 00:00:05;;;;;;;;;59.33;47.00;;;;;-0.30;83.01;100255.19;6274603;20;2872211;-40
2024/01/09 00:02:34;;;;;;;;;44.50;37.50;;;;;-0.26;79.61;100256.03;6310398;20;2863884;-40
2024/01/09 00:05:02;;;;;;;;;51.00;40.00;;;;;-0.39;81.73;100263.19;6275965;20;2500347;-40
2024/01/09 00:07:30;;;;;;;;;50.00;36.00;;;;;-0.56;81.52;100263.28;6276349;20;2875286;-40
2024/01/09 00:09:58;;;;;;;;;68.50;51.00;;;;;-0.62;83.34;100263.34;6272550;20;2503410;-39
2024/01/09 00:12:26;;;;;;;;;66.00;51.50;;;;;-0.10;83.39;100273.50;6274245;20;2496408;-40
2024/01/09 00:14:54;;;;;;;;;47.50;37.00;;;;;-0.37;84.03;100269.31;6274919;20;2500437;-40
2024/01/09 00:17:22;;;;;;;;;48.00;41.00;;;;;-0.28;85.68;100268.38;6273670;20;2500318;-39
2024/01/09 00:19:51;;;;;;;;;33.50;27.00;;;;;-0.28;81.14;100279.78;6277567;20;2849330;-40
2024/01/09 00:22:20;;;;;;;;;42.00;32.33;;;;;-0.29;81.28;100283.31;6276733;20;3592993;-40
2024/01/09 00:24:48;;;;;;;;;35.00;28.00;;;;;-0.15;81.00;100285.84;6279167;20;2854422;-39
2024/01/09 00:27:16;;;;;;;;;43.00;38.50;;;;;-0.11;79.90;100291.97;6275578;20;2500318;-40
2024/01/09 00:29:43;;;;;;;;;39.50;31.00;;;;;-0.44;79.28;100294.00;6273023;20;2500891;-39
2024/01/09 00:32:13;;;;;;;;;53.33;37.67;;;;;-0.53;79.57;100294.91;6277507;20;2881764;-40
2024/01/09 00:34:41;;;;;;;;;49.50;29.00;;;;;-0.52;78.62;100301.09;6308795;20;2870092;-40
2024/01/09 00:37:12;;;;;;;;;32.67;20.67;;;;;-0.53;70.83;100294.03;6278222;20;3590876;-39
2024/01/09 00:39:40;;;;;;;;;27.33;24.67;;;;;-0.38;72.19;100303.63;6279403;20;3581558;-40
2024/01/09 00:42:10;;;;;;;;;18.80;15.40;;;;;-0.48;72.51;100308.06;6302940;20;2824328;-40
2024/01/09 00:44:41;;;;;;;;;24.33;16.67;;;;;-0.49;73.36;100314.25;6278973;20;3559616;-39
2024/01/09 00:47:10;;;;;;;;;20.33;16.33;;;;;-0.18;73.37;100311.41;6306225;20;3561798;-40
2024/01/09 00:49:40;;;;;;;;;15.80;15.60;;;;;-0.42;68.69;100321.25;6331189;20;2823218;-40
2024/01/09 00:52:08;;;;;;;;;13.00;11.00;;;;;-0.30;68.19;100323.78;6295722;20;1827508;-40
2024/01/09 00:54:36;;;;;;;;;17.00;13.00;;;;;-0.25;68.03;100326.38;6306761;20;2815885;-39
2024/01/09 00:57:06;;;;;;;;;17.20;13.40;;;;;-0.43;69.71;100331.78;6300940;20;2818129;-40
2024/01/09 00:59:34;;;;;;;;;17.00;12.00;;;;;-0.19;68.63;100328.97;6278961;20;2806591;-40
2024/01/09 01:02:02;;;;;;;;;20.00;14.00;;;;;-0.27;66.49;100333.44;6277113;20;2811743;-40
2024/01/09 01:04:30;;;;;;;;;16.25;13.00;;;;;-0.47;64.18;100341.50;6294626;20;1823307;-40
2024/01/09 01:06:58;;;;;;;;;13.50;11.00;;;;;-0.27;64.75;100341.34;6307561;20;2785905;-40
2024/01/09 01:09:26;;;;;;;;;17.00;10.50;;;;;-0.44;64.50;100346.75;6275737;20;2789851;-40
2024/01/09 01:11:54;;;;;;;;;7.67;2.00;;;;;-0.23;63.60;100348.38;6275093;20;3467491;-39
2024/01/09 01:14:23;;;;;;;;;16.50;11.00;;;;;-0.48;64.64;100345.00;6307553;20;2789871;-40
2024/01/09 01:16:52;;;;;;;;;17.50;13.00;;;;;-0.32;66.20;100341.38;6276589;20;2807572;-40
2024/01/09 01:19:19;;;;;;;;;14.00;11.00;;;;;-0.23;66.58;100349.25;6278431;20;2787801;-40
2024/01/09 01:21:47;;;;;;;;;16.50;14.00;;;;;-0.29;67.57;100348.38;6277175;20;2794046;-40
2024/01/09 01:24:16;;;;;;;;;13.25;10.75;;;;;-0.23;67.63;100351.00;6289843;20;1824284;-42
2024/01/09 01:26:44;;;;;;;;;22.00;15.50;;;;;-0.22;69.04;100361.53;6304563;20;2823275;-40
2024/01/09 01:29:14;;;;;;;;;25.00;16.33;;;;;-0.12;71.36;100348.28;6296901;20;2832714;-39
2024/01/09 01:31:45;;;;;;;;;25.67;19.00;;;;;-0.10;71.91;100351.81;6308914;20;2841940;-40
2024/01/09 01:34:14;;;;;;;;;24.33;14.33;;;;;-0.22;73.46;100353.63;6306098;20;2834729;-39
2024/01/09 01:36:42;;;;;;;;;27.00;20.00;;;;;-0.06;73.83;100358.78;6307401;20;2777355;-39
2024/01/09 01:39:11;;;;;;;;;29.33;23.33;;;;;-0.24;74.76;100363.34;6278267;20;3575296;-40
2024/01/09 01:41:39;;;;;;;;;24.00;24.00;;;;;-0.12;76.84;100365.00;6276657;20;2831640;-40
2024/01/09 01:44:17;;;;;;;;;50.50;39.00;;;;;0.29;74.22;100368.19;6272537;20;2500291;-40
2024/01/09 01:46:47;;;;;;;;;36.50;30.00;;;;;-0.12;79.49;100370.28;6273851;20;2500332;-40
2024/01/09 01:49:18;;;;;;;;;30.33;22.00;;;;;0.01;77.23;100376.34;6274637;20;3566949;-40
2024/01/09 01:51:50;;;;;;;;;25.50;24.00;;;;;0.10;78.22;100370.97;6303366;20;2835737;-38
2024/01/09 01:54:20;;;;;;;;;36.00;25.00;;;;;-0.14;79.17;100376.44;6274961;20;2862846;-40
2024/01/09 01:56:52;;;;;;;;;28.00;21.33;;;;;0.05;78.53;100374.53;6272346;20;3561848;-40
2024/01/09 01:59:22;;;;;;;;;30.67;23.33;;;;;-0.04;81.07;100379.00;6273393;20;3566906;-40
2024/01/09 02:01:52;;;;;;;;;28.67;20.00;;;;;-0.25;81.45;100377.38;6305943;20;3595047;-39
2024/01/09 02:04:22;;;;;;;;;25.00;22.67;;;;;-0.20;83.26;100376.50;6271393;20;3564862;-39
2024/01/09 02:06:51;;;;;;;;;33.67;25.33;;;;;-0.26;82.58;100378.28;6273894;20;3573192;-40
2024/01/09 02:09:19;;;;;;;;;24.00;20.50;;;;;-0.05;84.02;100377.28;6304593;20;2822197;-40
2024/01/09 02:11:49;;;;;;;;;30.50;24.00;;;;;0.24;85.96;100378.81;6272578;20;2498199;-39
2024/01/09 02:14:17;;;;;;;;;25.50;21.50;;;;;0.00;85.03;100379.88;6269950;20;2822145;-40
2024/01/09 02:16:45;;;;;;;;;38.00;27.00;;;;;-0.26;87.46;100378.28;6269486;20;2500310;-40
2024/01/09 02:19:14;;;;;;;;;41.00;28.67;;;;;-0.38;87.14;100380.13;6275073;20;2877381;-40
2024/01/09 02:21:43;;;;;;;;;40.67;31.33;;;;;-0.35;88.54;100378.31;6306015;20;3609644;-40
2024/01/09 02:24:12;;;;;;;;;36.33;28.67;;;;;-0.31;89.66;100380.06;6273638;20;3587785;-40
2024/01/09 02:27:16;;;;;;;;;32.00;25.67;;;;;-0.11;89.49;100387.84;6272163;20;3585700;-40
2024/01/09 02:29:49;;;;;;;;;32.00;27.00;;;;;-0.03;88.88;100385.16;6272442;20;3580522;-42
2024/01/09 02:32:19;;;;;;;;;40.50;27.50;;;;;0.46;86.74;100390.06;6269531;20;2498293;-39
2024/01/09 02:34:50;;;;;;;;;31.33;25.00;;;;;0.52;85.17;100392.63;6273944;20;3576299;-41
2024/01/09 02:37:19;;;;;;;;;41.00;30.33;;;;;0.29;86.80;100384.03;6270668;20;3605507;-40
2024/01/09 02:39:47;;;;;;;;;47.00;34.00;;;;;-0.19;87.89;100388.78;6272640;20;2863938;-40
2024/01/09 02:42:16;;;;;;;;;38.33;26.00;;;;;0.41;84.37;100390.09;6275881;20;3601319;-40
2024/01/09 02:44:44;;;;;;;;;40.00;28.50;;;;;0.50;81.09;100399.72;6273541;20;2861737;-40
2024/01/09 02:47:13;;;;;;;;;32.67;27.00;;;;;0.41;80.54;100391.84;6276721;20;3571160;-43
2024/01/09 02:49:42;;;;;;;;;28.00;24.00;;;;;0.58;79.34;100400.50;6309772;20;3561720;-40
2024/01/09 02:52:10;;;;;;;;;31.00;22.50;;;;;0.21;77.78;100400.84;6280976;20;2836742;-40
2024/01/09 02:54:38;;;;;;;;;32.50;26.50;;;;;-0.35;78.58;100394.16;6281277;20;2856725;-40
2024/01/09 02:57:06;;;;;;;;;29.00;22.00;;;;;-0.29;81.44;100394.16;6279366;20;3573202;-39
2024/01/09 02:59:35;;;;;;;;;27.00;20.67;;;;;-0.57;81.56;100403.09;6275512;20;3557601;-40
2024/01/09 03:02:07;;;;;;;;;25.00;23.00;;;;;0.05;80.44;100401.81;6280437;20;3560767;-40
2024/01/09 03:04:36;;;;;;;;;28.00;23.00;;;;;-0.41;81.08;100401.25;6307543;20;3566010;-40
2024/01/09 03:07:05;;;;;;;;;25.67;23.33;;;;;-0.17;79.78;100403.72;6312226;20;3563838;-37
2024/01/09 03:09:35;;;;;;;;;31.67;20.67;;;;;-0.19;76.02;100402.00;6309980;20;3570150;-38
2024/01/09 03:12:04;;;;;;;;;19.50;16.50;;;;;-0.46;71.46;100404.78;6310294;20;2831521;-39
2024/01/09 03:14:37;;;;;;;;;17.50;14.00;;;;;-0.64;69.38;100406.63;6275785;20;2819026;-40
2024/01/09 03:17:05;;;;;;;;;12.00;9.00;;;;;-0.46;68.27;100406.53;6280067;20;2753453;-40
2024/01/09 03:19:34;;;;;;;;;16.00;13.67;;;;;-0.61;69.62;100410.13;6309685;20;3552504;-40
2024/01/09 03:22:03;;;;;;;;;17.67;14.67;;;;;-0.74;69.51;100417.22;6311348;20;2807799;-40
2024/01/09 03:24:32;;;;;;;;;18.33;16.33;;;;;-0.44;64.96;100431.16;6310368;20;3560781;-40
2024/01/09 03:27:00;;;;;;;;;17.00;16.00;;;;;-0.19;64.12;100418.69;6310433;20;2814890;-39
2024/01/09 03:29:27;;;;;;;;;14.50;13.00;;;;;-0.49;64.27;100422.38;6279679;20;2786758;-40
2024/01/09 03:31:56;;;;;;;;;11.50;10.75;;;;;-0.46;64.33;100430.28;6298207;20;1831645;-40
2024/01/09 03:34:26;;;;;;;;;21.00;13.80;;;;;-0.09;65.83;100433.59;6329925;20;2822323;-39
2024/01/09 03:36:54;;;;;;;;;36.50;29.50;;;;;0.02;66.27;100435.28;6273447;20;2500345;-40
2024/01/09 03:39:23;;;;;;;;;44.00;33.67;;;;;-0.40;66.72;100432.88;6280867;20;3605492;-39
2024/01/09 03:41:53;;;;;;;;;18.80;15.00;;;;;-0.48;64.40;100435.53;6332180;20;2823576;-39
2024/01/09 03:44:21;;;;;;;;;12.75;10.75;;;;;-0.46;63.98;100439.06;6297219;20;1825425;-40
2024/01/09 03:46:49;;;;;;;;;16.00;11.00;;;;;-0.55;63.98;100443.53;6311155;20;2796239;-40
2024/01/09 03:49:18;;;;;;;;;12.25;12.25;;;;;-0.25;63.79;100446.00;6295967;20;1836884;-41
2024/01/09 03:51:45;;;;;;;;;13.00;10.00;;;;;-0.47;64.19;100447.00;6309845;20;2789930;-40
2024/01/09 03:54:13;;;;;;;;;16.00;10.00;;;;;-0.39;65.12;100439.06;6274491;20;2790996;-40
2024/01/09 03:56:41;;;;;;;;;14.00;11.00;;;;;-0.37;66.29;100463.66;6276833;20;2777491;-39
2024/01/09 03:59:09;;;;;;;;;12.00;12.00;;;;;-0.55;66.58;100460.22;6276916;20;2779488;-40
2024/01/09 04:01:40;;;;;;;;;47.00;39.80;;;;;-0.44;65.63;100470.72;6306236;20;3597147;-41
2024/01/09 04:04:09;;;;;;;;;15.00;11.00;;;;;-0.35;64.90;100470.66;6292366;20;1836830;-40
2024/01/09 04:06:44;;;;;;;;;20.00;14.00;;;;;-0.35;63.36;100468.03;6308844;20;2797293;-40
2024/01/09 04:09:14;;;;;;;;;16.60;14.80;;;;;-0.11;63.29;100479.34;6301817;20;2808655;-40
2024/01/09 04:11:46;;;;;;;;;12.00;10.00;;;;;-0.54;58.35;100487.47;6278596;20;2787782;-39
2024/01/09 04:14:14;;;;;;;;;9.00;5.00;;;;;-0.35;58.45;100483.00;6277272;20;2758650;-40
2024/01/09 04:16:47;;;;;;;;;6.75;6.75;;;;;-0.64;59.58;100489.25;6327699;20;1827089;-41
2024/01/09 04:19:14;;;;;;;;;16.50;11.00;;;;;-0.70;60.39;100489.28;6307423;20;2785689;-39
2024/01/09 04:21:42;;;;;;;;;11.00;8.00;;;;;-0.43;60.35;100493.56;6278620;20;3456539;-40
2024/01/09 04:24:11;;;;;;;;;12.25;9.25;;;;;-0.35;61.77;100497.03;6324607;20;1820094;-41
2024/01/09 04:26:39;;;;;;;;;13.00;8.50;;;;;-0.49;60.46;100497.09;6326101;20;1831624;-40
2024/01/09 04:29:08;;;;;;;;;10.00;7.25;;;;;-0.49;60.55;100497.09;6328073;20;1818538;-40
2024/01/09 04:31:36;;;;;;;;;7.50;7.50;;;;;-0.53;59.86;100498.00;6310425;20;2740958;-39
2024/01/09 04:34:05;;;;;;;;;11.50;8.00;;;;;-0.49;60.57;100506.78;6324867;20;1826444;-39
2024/01/09 04:36:33;;;;;;;;;8.00;8.00;;;;;-0.46;61.63;100501.50;6327963;20;1832986;-40
2024/01/09 04:39:02;;;;;;;;;10.00;7.00;;;;;-0.49;62.62;100512.06;6329137;20;1831636;-41
2024/01/09 04:41:30;;;;;;;;;10.50;8.00;;;;;-0.14;62.78;100508.41;6309412;20;2757619;-39
2024/01/09 04:43:58;;;;;;;;;23.00;22.33;;;;;-0.19;60.55;100518.09;6275147;20;3579906;-40
2024/01/09 04:46:26;;;;;;;;;17.50;11.00;;;;;-0.24;63.47;100521.66;6305637;20;2795082;-39
2024/01/09 04:48:55;;;;;;;;;7.50;7.00;;;;;-0.27;62.14;100528.69;6276970;20;2746200;-41
2024/01/09 04:51:24;;;;;;;;;8.00;8.00;;;;;-0.49;61.67;100522.63;6324445;20;1821716;-39
2024/01/09 04:53:52;;;;;;;;;7.00;7.00;;;;;-0.59;61.84;100531.44;6327516;20;1829544;-41
2024/01/09 04:56:20;;;;;;;;;7.67;6.00;;;;;-0.42;61.87;100523.47;6310301;20;3467000;-39
2024/01/09 04:58:53;;;;;;;;;5.00;5.00;;;;;-0.58;61.97;100530.53;6310043;20;3452454;-40
2024/01/09 05:01:21;;;;;;;;;9.00;8.00;;;;;-0.51;60.48;100532.28;6309198;20;3482632;-40
2024/01/09 05:03:50;;;;;;;;;5.67;5.67;;;;;-0.63;60.33;100534.94;6305917;20;3463923;-40
2024/01/09 05:06:19;;;;;;;;;7.67;5.67;;;;;-0.56;59.69;100541.97;6307817;20;3462799;-40
2024/01/09 05:08:48;;;;;;;;;7.00;5.00;;;;;-0.46;60.08;100547.22;6327544;20;1823243;-40
2024/01/09 05:11:17;;;;;;;;;14.00;6.25;;;;;-0.72;59.14;100542.00;6324702;20;1825410;-40
2024/01/09 05:13:47;;;;;;;;;33.50;28.50;;;;;-0.57;58.52;100550.78;6305573;20;2854451;-39
2024/01/09 05:16:15;;;;;;;;;10.00;6.33;;;;;-0.65;59.00;100549.91;6278161;20;3474227;-40
2024/01/09 05:18:44;;;;;;;;;27.33;21.33;;;;;-0.82;59.39;100550.78;6304241;20;3565896;-41
2024/01/09 05:21:12;;;;;;;;;4.67;4.67;;;;;-0.71;59.04;100554.31;6280739;20;3457561;-40
2024/01/09 05:23:41;;;;;;;;;8.00;2.00;;;;;-0.71;57.84;100559.59;6325054;20;1808639;-40
2024/01/09 05:26:09;;;;;;;;;7.00;4.75;;;;;-0.63;57.77;100567.50;6325694;20;1826356;-40
2024/01/09 05:28:38;;;;;;;;;9.00;7.00;;;;;-0.51;56.87;100566.56;6309847;20;2744037;-39
2024/01/09 05:31:06;;;;;;;;;12.00;4.75;;;;;-0.55;57.11;100567.47;6324329;20;1831179;-39
2024/01/09 05:33:35;;;;;;;;;14.00;10.00;;;;;-0.45;56.37;100577.09;6322724;20;1829476;-39
2024/01/09 05:36:06;;;;;;;;;4.00;2.00;;;;;-0.63;56.07;100578.03;6308009;20;3454453;-39
2024/01/09 05:38:34;;;;;;;;;15.00;11.00;;;;;-0.58;56.07;100584.19;6307946;20;2787793;-40
2024/01/09 05:41:02;;;;;;;;;7.00;7.00;;;;;-0.49;56.44;100581.50;6269572;20;3461124;-40
2024/01/09 05:43:30;;;;;;;;;4.00;3.00;;;;;-0.20;58.04;100587.59;6303452;20;3473234;-40
2024/01/09 05:45:57;;;;;;;;;6.67;6.67;;;;;-0.40;53.99;100596.44;6276259;20;3471105;-40
2024/01/09 05:48:26;;;;;;;;;24.00;20.75;;;;;-0.18;57.89;100593.75;6324100;20;1839931;-39
2024/01/09 05:50:54;;;;;;;;;5.00;5.00;;;;;-0.33;54.54;100592.91;6308240;20;2754469;-40
2024/01/09 05:53:23;;;;;;;;;10.50;9.50;;;;;-0.54;53.72;100591.19;6323743;20;1823332;-39
2024/01/09 05:55:51;;;;;;;;;15.00;7.00;;;;;-0.52;53.82;100591.22;6304172;20;3510754;-39
2024/01/09 05:58:20;;;;;;;;;9.80;7.80;;;;;-0.69;53.96;100610.53;6301421;20;2763218;-40
2024/01/09 06:00:48;;;;;;;;;9.00;5.67;;;;;-0.47;53.29;100615.81;6300926;20;3478237;-39
2024/01/09 06:03:16;;;;;;;;;8.00;4.00;;;;;-0.61;52.65;100615.81;6306192;20;3472133;-40
2024/01/09 06:05:45;;;;;;;;;8.75;7.00;;;;;-0.63;53.69;100622.88;6326619;20;1827397;-40
2024/01/09 06:08:14;;;;;;;;;12.00;9.50;;;;;-0.49;53.02;100617.56;6324558;20;1823356;-40
2024/01/09 06:10:43;;;;;;;;;11.25;10.00;;;;;-0.22;53.35;100628.06;6322528;20;1826491;-39
2024/01/09 06:13:10;;;;;;;;;8.33;4.67;;;;;-0.58;53.16;100634.28;6306325;20;3477530;-40
2024/01/09 06:15:38;;;;;;;;;7.33;7.00;;;;;-0.62;53.13;100632.53;6274678;20;3457649;-40
2024/01/09 06:18:07;;;;;;;;;4.50;3.00;;;;;-0.83;52.50;100641.31;6304588;20;2751316;-39
2024/01/09 06:20:36;;;;;;;;;14.50;8.00;;;;;-0.78;52.73;100639.56;6319339;20;1839085;-43
2024/01/09 06:23:05;;;;;;;;;10.00;5.75;;;;;-0.69;51.46;100643.94;6325547;20;1828547;-39
2024/01/09 06:25:33;;;;;;;;;18.00;13.00;;;;;-0.80;51.03;100645.72;6311876;20;2794067;-40
2024/01/09 06:28:02;;;;;;;;;19.00;18.33;;;;;-0.60;52.34;100651.00;6303531;20;2827482;-39
2024/01/09 06:30:34;;;;;;;;;21.57;15.71;;;;;-0.74;51.83;100657.16;6342562;20;1823309;-41
2024/01/09 06:33:02;;;;;;;;;13.50;11.50;;;;;-0.79;50.22;100658.91;6304571;20;2768001;-39
2024/01/09 06:35:30;;;;;;;;;7.67;7.00;;;;;-0.59;51.38;100666.81;6307396;20;3465904;-40
2024/01/09 06:37:58;;;;;;;;;6.00;3.67;;;;;-0.74;51.69;100661.53;6308960;20;3453510;-40
2024/01/09 06:40:26;;;;;;;;;4.00;4.00;;;;;-0.48;52.93;100666.78;6308708;20;3460675;-40
2024/01/09 06:42:54;;;;;;;;;6.00;4.00;;;;;-0.06;55.80;100675.53;6307749;20;2733689;-39
2024/01/09 06:45:21;;;;;;;;;4.00;4.00;;;;;-0.68;52.32;100680.00;6308345;20;3457548;-40
2024/01/09 06:47:49;;;;;;;;;9.00;6.67;;;;;-0.38;52.10;100687.03;6306808;20;3459705;-40
2024/01/09 06:50:17;;;;;;;;;22.50;15.50;;;;;-0.35;51.15;100696.69;6306466;20;2810708;-40
2024/01/09 06:53:00;;;;;;;;;6.67;3.00;;;;;-0.57;51.31;100687.91;6274671;20;3468036;-41
2024/01/09 06:55:28;;;;;;;;;28.00;25.00;;;;;-0.77;51.94;100696.69;6304695;20;2539677;-40
2024/01/09 06:57:56;;;;;;;;;8.00;7.00;;;;;-0.68;51.62;100701.97;6271415;20;3474219;-39
2024/01/09 07:00:24;;;;;;;;;4.00;4.00;;;;;-0.60;51.27;100707.25;6306350;20;3472663;-39
2024/01/09 07:02:53;;;;;;;;;57.00;46.67;;;;;-0.76;50.37;100710.78;6274491;20;2875389;-40
2024/01/09 07:05:21;;;;;;;;;7.33;2.00;;;;;-0.42;50.47;100711.66;6306923;20;3469035;-40
2024/01/09 07:07:49;;;;;;;;;7.00;7.00;;;;;-0.70;50.84;100714.28;6274672;20;2747285;-40
2024/01/09 07:10:18;;;;;;;;;2.67;2.00;;;;;-0.82;49.88;100718.66;6305937;20;2760815;-39
2024/01/09 07:12:46;;;;;;;;;7.00;4.33;;;;;-0.70;50.43;100723.94;6304504;20;3455579;-40
2024/01/09 07:15:15;;;;;;;;;9.75;5.00;;;;;-0.62;50.92;100729.22;6325255;20;1837905;-39
2024/01/09 07:17:47;;;;;;;;;6.00;4.00;;;;;-0.68;51.29;100723.06;6307904;20;3453395;-40
2024/01/09 07:20:16;;;;;;;;;9.50;7.00;;;;;-0.73;51.00;100730.09;6324398;20;1833767;-40
2024/01/09 07:22:44;;;;;;;;;6.00;6.00;;;;;-0.70;51.12;100731.84;6307710;20;3455462;-40
2024/01/09 07:25:15;;;;;;;;;5.00;3.00;;;;;-0.69;50.66;100736.25;6305179;20;3472304;-40
2024/01/09 07:27:44;;;;;;;;;8.25;6.75;;;;;-0.71;50.67;100740.63;6321566;20;1827430;-39
2024/01/09 07:30:13;;;;;;;;;6.00;4.00;;;;;-0.76;50.21;100748.56;6306903;20;3463765;-39
2024/01/09 07:32:42;;;;;;;;;5.50;5.50;;;;;-0.73;50.68;100745.91;6329762;20;1814377;-40
2024/01/09 07:35:11;;;;;;;;;11.50;6.00;;;;;-0.65;51.21;100752.97;6310374;20;2771294;-40
2024/01/09 07:37:38;;;;;;;;;15.33;13.67;;;;;-0.63;50.31;100757.38;6310194;20;3529452;-39
2024/01/09 07:40:09;;;;;;;;;10.75;7.00;;;;;-0.71;49.63;100760.00;6295341;20;1833653;-40
2024/01/09 07:42:38;;;;;;;;;3.00;3.00;;;;;-0.57;50.92;100761.75;6326081;20;1829451;-39
2024/01/09 07:45:19;;;;;;;;;4.00;4.00;;;;;-0.56;50.76;100758.25;6310940;20;3453455;-39
2024/01/09 07:47:47;;;;;;;;;8.00;1.00;;;;;-0.61;49.92;100760.88;6306193;20;2733767;-40
2024/01/09 07:50:15;;;;;;;;;5.00;5.00;;;;;-0.49;50.36;100765.28;6306649;20;3459738;-40
2024/01/09 07:52:43;;;;;;;;;3.67;1.00;;;;;0.01;51.98;100767.03;6313044;20;3452889;-40
2024/01/09 07:55:10;;;;;;;;;4.67;0.33;;;;;-0.53;49.83;100777.56;6310535;20;2732692;-39
2024/01/09 07:57:38;;;;;;;;;6.00;4.00;;;;;-0.50;48.93;100777.59;6309487;20;3460711;-40
2024/01/09 08:00:08;;;;;;;;;6.25;3.25;;;;;-0.34;49.42;100785.50;6327847;20;1825313;-39
2024/01/09 08:02:37;;;;;;;;;4.00;3.00;;;;;-0.46;48.60;100786.38;6329739;20;1831540;-40
2024/01/09 08:05:05;;;;;;;;;7.00;6.00;;;;;-0.32;49.76;100795.19;6312197;20;2750322;-40
2024/01/09 08:07:33;;;;;;;;;8.00;5.00;;;;;-0.43;49.86;100793.44;6309138;20;3472217;-40
2024/01/09 08:10:01;;;;;;;;;19.50;16.50;;;;;-0.35;49.75;100794.31;6274730;20;2834747;-40
2024/01/09 08:12:29;;;;;;;;;5.00;3.00;;;;;-0.60;49.43;100789.00;6266039;20;3454543;-40
2024/01/09 08:14:57;;;;;;;;;10.00;5.00;;;;;-0.68;48.06;100794.28;6300654;20;2771602;-39
2024/01/09 08:17:25;;;;;;;;;19.50;10.00;;;;;-0.07;49.90;100795.22;6303325;20;2802390;-41
2024/01/09 08:19:54;;;;;;;;;8.00;5.00;;;;;-0.35;48.81;100804.88;6291778;20;1824359;-40
2024/01/09 08:22:21;;;;;;;;;11.00;7.00;;;;;-0.40;47.91;100802.22;6299149;20;2765902;-40
2024/01/09 08:24:49;;;;;;;;;12.67;7.67;;;;;-0.37;47.67;100802.25;6298540;20;3481761;-40
2024/01/09 08:27:18;;;;;;;;;13.33;8.00;;;;;-0.28;47.37;100802.22;6301809;20;2761857;-40
2024/01/09 08:29:47;;;;;;;;;6.25;6.25;;;;;-0.01;48.30;100805.75;6320544;20;1808663;-40
2024/01/09 08:32:17;;;;;;;;;10.00;7.00;;;;;-0.28;47.73;100804.88;6300703;20;3474342;-40
2024/01/09 08:34:44;;;;;;;;;4.00;4.00;;;;;-0.05;47.55;100817.22;6272884;20;2743072;-44
2024/01/09 08:37:13;;;;;;;;;10.00;7.00;;;;;-0.15;46.60;100820.72;6319158;20;1829036;-39
2024/01/09 08:39:42;;;;;;;;;10.25;6.00;;;;;-0.35;46.20;100818.06;6318369;20;1824356;-40
2024/01/09 08:42:10;;;;;;;;;8.00;4.50;;;;;-0.27;47.25;100825.09;6317100;20;1829523;-40
2024/01/09 08:44:39;;;;;;;;;7.25;7.25;;;;;0.42;50.19;100822.44;6322300;20;1819199;-40
2024/01/09 08:47:07;;;;;;;;;14.00;10.25;;;;;0.11;47.63;100836.56;6315943;20;1819068;-40
2024/01/09 08:49:36;;;;;;;;;11.00;2.67;;;;;0.24;46.65;100833.03;6301117;20;3484654;-40
2024/01/09 08:52:05;;;;;;;;;7.50;7.50;;;;;0.49;47.99;100839.16;6317965;20;1821283;-40
2024/01/09 08:54:33;;;;;;;;;13.50;10.00;;;;;0.41;46.55;100840.94;6300326;20;2785718;-40
2024/01/09 08:57:00;;;;;;;;;18.00;8.00;;;;;0.19;45.75;100845.38;6266770;20;2802394;-40
2024/01/09 08:59:28;;;;;;;;;8.00;8.00;;;;;0.47;46.57;100842.69;6268707;20;3459681;-40
2024/01/09 09:01:57;;;;;;;;;8.25;8.25;;;;;0.53;46.88;100853.25;6321573;20;1832676;-40
2024/01/09 09:04:26;;;;;;;;;4.75;3.50;;;;;0.16;46.25;100854.16;6321009;20;1821164;-40
2024/01/09 09:06:54;;;;;;;;;6.00;4.75;;;;;0.32;45.88;100852.41;6323493;20;1824774;-40
2024/01/09 09:09:23;;;;;;;;;8.00;3.50;;;;;0.76;46.71;100858.47;6321556;20;1814965;-41
2024/01/09 09:11:51;;;;;;;;;15.00;10.00;;;;;0.15;46.43;100852.38;6301167;20;2781601;-41
2024/01/09 09:14:18;;;;;;;;;5.00;4.00;;;;;0.71;46.81;100870.81;6267918;20;3472233;-43
2024/01/09 09:16:47;;;;;;;;;7.00;4.00;;;;;0.60;46.46;100857.63;6290623;20;1825369;-42
2024/01/09 09:19:17;;;;;;;;;4.00;4.00;;;;;0.58;46.03;100873.50;6303381;20;3452432;-41
2024/01/09 09:21:45;;;;;;;;;2.67;1.00;;;;;0.04;45.26;100871.75;6302913;20;3448294;-40
2024/01/09 09:24:14;;;;;;;;;4.00;4.00;;;;;0.41;46.11;100862.06;6318298;20;1819189;-41
2024/01/09 09:26:41;;;;;;;;;4.00;4.00;;;;;0.11;45.24;100866.47;6300516;20;2753429;-41
2024/01/09 09:29:10;;;;;;;;;4.67;3.33;;;;;0.42;45.81;100875.28;6301626;20;3470083;-40
2024/01/09 09:31:55;;;;;;;;;9.00;7.25;;;;;0.44;45.01;100862.06;6287174;20;1820129;-42
2024/01/09 09:34:23;;;;;;;;;13.50;10.50;;;;;0.52;46.80;100865.56;6296619;20;2781564;-40
2024/01/09 09:36:51;;;;;;;;;52.00;36.00;;;;;0.23;47.16;100862.94;6265328;20;2553408;-40
2024/01/09 09:39:19;;;;;;;;;7.67;4.00;;;;;0.31;46.96;100855.91;6272243;20;3464930;-40
2024/01/09 09:41:52;;;;;;;;;9.75;3.50;;;;;0.26;46.30;100862.06;6319347;20;1824273;-40
2024/01/09 09:44:21;;;;;;;;;7.50;5.00;;;;;0.34;46.94;100860.28;6297850;20;2755568;-40
2024/01/09 09:46:51;;;;;;;;;2.67;2.67;;;;;0.62;47.58;100862.03;6298457;20;3472180;-40
2024/01/09 09:49:22;;;;;;;;;4.00;4.00;;;;;0.82;47.32;100861.13;6314779;20;2587185;-40
2024/01/09 09:51:53;;;;;;;;;5.67;4.33;;;;;0.27;46.97;100851.50;6268613;20;3444140;-40
2024/01/09 09:54:23;;;;;;;;;8.50;5.00;;;;;0.80;47.62;100857.59;6316755;20;1822280;-40
2024/01/09 09:56:51;;;;;;;;;8.50;7.00;;;;;0.61;46.19;100855.00;6298223;20;2750342;-41
2024/01/09 09:59:19;;;;;;;;;6.33;1.67;;;;;0.97;41.76;100853.09;6272465;20;3449251;-40
2024/01/09 10:01:48;;;;;;;;;4.67;4.67;;;;;0.79;40.23;100863.75;6302738;20;3461747;-38
2024/01/09 10:04:46;;;;;;;;;4.00;1.67;;;;;1.96;44.03;100850.81;6301122;20;3462764;-40
2024/01/09 10:07:20;;;;;;;;;38.33;32.33;;;;;1.13;41.02;100853.06;6299932;20;2867018;-40
2024/01/09 10:09:53;;;;;;;;;13.67;13.67;;;;;1.25;40.24;100858.28;6298169;20;3507559;-39
2024/01/09 10:12:24;;;;;;;;;109.33;89.33;;;;;1.24;39.38;100872.44;6268262;20;3685684;-41
2024/01/09 10:15:13;;;;;;;;;5.33;2.67;;;;;1.03;38.43;100868.97;6267171;20;3463825;-40
2024/01/09 10:17:42;;;;;;;;;1.50;1.50;;;;;1.06;39.28;100868.09;6317006;20;1821145;-40
2024/01/09 10:20:13;;;;;;;;;1.75;1.75;;;;;1.47;38.54;100864.34;6320675;20;1825325;-40
2024/01/09 10:22:42;;;;;;;;;42.00;41.75;;;;;1.56;39.61;100868.72;6311336;20;1844264;-41
2024/01/09 10:25:12;;;;;;;;;9.00;9.00;;;;;1.87;40.09;100872.03;6299829;20;2741983;-41
2024/01/09 10:27:41;;;;;;;;;2.00;2.00;;;;;1.66;40.62;100875.72;6288563;20;1811324;-42
2024/01/09 10:30:10;;;;;;;;;6.50;6.50;;;;;1.77;41.18;100876.53;6299711;20;2746202;-40
2024/01/09 10:32:40;;;;;;;;;20.00;19.00;;;;;1.91;41.04;100877.31;6296903;20;2814931;-40
2024/01/09 10:35:13;;;;;;;;;9.00;5.00;;;;;1.84;40.98;100865.00;6283371;20;1814524;-40
2024/01/09 10:37:43;;;;;;;;;20.00;12.50;;;;;1.48;40.04;100880.22;6299862;20;2500408;-42
2024/01/09 10:40:13;;;;;;;;;10.67;6.67;;;;;1.09;39.76;100883.94;6266815;20;3485823;-41
2024/01/09 10:42:48;;;;;;;;;2.67;2.67;;;;;0.78;40.04;100884.00;6269285;20;3461739;-44
2024/01/09 10:45:19;;;;;;;;;12.00;10.00;;;;;1.12;40.72;100883.03;6300164;20;2781982;-40
2024/01/09 10:47:53;;;;;;;;;8.50;8.00;;;;;0.93;40.29;100891.03;6310609;20;1813940;-40
2024/01/09 10:50:23;;;;;;;;;7.25;7.25;;;;;1.24;42.26;100890.94;6287936;20;1822661;-40
2024/01/09 10:52:52;;;;;;;;;5.00;3.33;;;;;0.85;40.75;100885.75;6317557;20;1802413;-40
2024/01/09 10:55:23;;;;;;;;;3.67;2.67;;;;;0.94;39.62;100883.97;6299380;20;3456576;-41
2024/01/09 10:57:52;;;;;;;;;10.50;5.50;;;;;1.34;41.47;100889.13;6315977;20;1833760;-40
2024/01/09 11:00:22;;;;;;;;;6.50;6.50;;;;;1.12;41.18;100888.34;6319618;20;1819321;-40
2024/01/09 11:02:50;;;;;;;;;12.00;12.00;;;;;1.22;40.52;100896.22;6296214;20;2809735;-39
2024/01/09 11:05:19;;;;;;;;;11.00;5.75;;;;;1.70;40.37;100890.69;6285341;20;1827519;-40
2024/01/09 11:07:50;;;;;;;;;6.67;6.67;;;;;1.50;39.60;100909.31;6306173;20;3462755;-40
2024/01/09 11:10:19;;;;;;;;;11.00;11.00;;;;;1.53;39.62;100912.84;6306685;20;2766950;-41